createdAt,value
2019-03-09T00:00:21.834Z,931.37
2019-03-09T00:01:21.803Z,931.38
2019-03-09T00:02:21.759Z,931.39
2019-03-09T00:03:21.716Z,931.37
2019-03-09T00:04:21.662Z,931.38
2019-03-09T00:05:21.614Z,931.40
2019-03-09T00:06:21.571Z,931.39
2019-03-09T00:07:21.538Z,931.36
2019-03-09T00:08:21.482Z,931.33
2019-03-09T00:09:21.457Z,931.36
2019-03-09T00:10:21.395Z,931.33
2019-03-09T00:11:21.342Z,931.32
2019-03-09T00:12:21.319Z,931.34
2019-03-09T00:13:21.269Z,931.39
2019-03-09T00:14:21.226Z,931.37
2019-03-09T00:15:21.175Z,931.42
2019-03-09T00:16:21.122Z,931.39
2019-03-09T00:17:21.087Z,931.42
2019-03-09T00:18:21.034Z,931.41
2019-03-09T00:19:20.998Z,931.40
2019-03-09T00:20:20.946Z,931.45
2019-03-09T00:21:20.923Z,931.43
2019-03-09T00:22:20.870Z,931.43
2019-03-09T00:23:20.828Z,931.42
2019-03-09T00:24:20.782Z,931.45
2019-03-09T00:25:20.738Z,931.46
2019-03-09T00:26:20.689Z,931.42
2019-03-09T00:27:29.406Z,931.48
2019-03-09T00:28:20.592Z,931.46
2019-03-09T00:29:20.549Z,931.49
2019-03-09T00:30:20.517Z,931.46
2019-03-09T00:31:20.472Z,931.43
2019-03-09T00:32:20.432Z,931.51
2019-03-09T00:33:20.372Z,931.48
2019-03-09T00:34:20.331Z,931.47
2019-03-09T00:35:20.305Z,931.46
2019-03-09T00:36:20.248Z,931.46
2019-03-09T00:37:20.209Z,931.43
2019-03-09T00:38:20.173Z,931.47
2019-03-09T00:39:20.115Z,931.49
2019-03-09T00:40:20.063Z,931.50
2019-03-09T00:41:20.040Z,931.51
2019-03-09T00:42:19.987Z,931.52
2019-03-09T00:43:19.939Z,931.55
2019-03-09T00:44:19.899Z,931.58
2019-03-09T00:45:19.863Z,931.58
2019-03-09T00:46:19.820Z,931.57
2019-03-09T00:47:19.756Z,931.54
2019-03-09T00:48:19.731Z,931.52
2019-03-09T00:49:19.677Z,931.52
2019-03-09T00:50:19.642Z,931.49
2019-03-09T00:51:19.599Z,931.51
2019-03-09T00:52:19.547Z,931.51
2019-03-09T00:53:19.526Z,931.53
2019-03-09T00:54:19.443Z,931.53
2019-03-09T00:55:19.399Z,931.49
2019-03-09T00:56:19.368Z,931.49
2019-03-09T00:57:19.311Z,931.49
2019-03-09T00:58:19.267Z,931.48
2019-03-09T00:59:19.222Z,931.47
2019-03-09T01:00:19.180Z,931.45
2019-03-09T01:01:19.137Z,931.46
2019-03-09T01:02:19.098Z,931.47
2019-03-09T01:03:19.061Z,931.45
2019-03-09T01:04:19.015Z,931.48
2019-03-09T01:05:18.965Z,931.48
2019-03-09T01:06:18.920Z,931.49
2019-03-09T01:07:18.889Z,931.50
2019-03-09T01:08:18.836Z,931.58
2019-03-09T01:09:18.802Z,931.51
2019-03-09T01:10:18.756Z,931.54
2019-03-09T01:11:18.699Z,931.59
2019-03-09T01:12:18.659Z,931.62
2019-03-09T01:13:18.616Z,931.64
2019-03-09T01:14:18.579Z,931.65
2019-03-09T01:15:18.533Z,931.68
2019-03-09T01:16:18.478Z,931.69
2019-03-09T01:17:18.424Z,931.71
2019-03-09T01:18:18.380Z,931.79
2019-03-09T01:19:18.359Z,931.79
2019-03-09T01:20:18.305Z,931.79
2019-03-09T01:21:18.268Z,931.82
2019-03-09T01:22:18.215Z,931.84
2019-03-09T01:23:18.181Z,931.89
2019-03-09T01:24:18.113Z,931.87
2019-03-09T01:25:18.077Z,931.88
2019-03-09T01:26:18.046Z,931.88
2019-03-09T01:27:17.988Z,931.91
2019-03-09T01:28:17.937Z,931.88
2019-03-09T01:29:17.913Z,931.88
2019-03-09T01:30:17.848Z,931.90
2019-03-09T01:31:17.802Z,931.89
2019-03-09T01:32:17.767Z,931.93
2019-03-09T01:33:17.714Z,931.87
2019-03-09T01:34:17.678Z,931.90
2019-03-09T01:35:17.646Z,931.91
2019-03-09T01:36:17.593Z,931.83
2019-03-09T01:37:17.537Z,931.86
2019-03-09T01:38:17.512Z,931.83
2019-03-09T01:39:17.467Z,931.83
2019-03-09T01:40:17.415Z,931.83
2019-03-09T01:41:17.366Z,931.84
2019-03-09T01:42:17.327Z,931.84
2019-03-09T01:43:17.281Z,931.79
2019-03-09T01:44:17.234Z,931.82
2019-03-09T01:45:17.190Z,931.77
2019-03-09T01:46:17.149Z,931.81
2019-03-09T01:47:17.106Z,931.79
2019-03-09T01:48:17.047Z,931.82
2019-03-09T01:49:17.004Z,931.84
2019-03-09T01:50:16.960Z,931.85
2019-03-09T01:51:16.941Z,931.88
2019-03-09T01:52:16.881Z,931.86
2019-03-09T01:53:16.824Z,931.83
2019-03-09T01:54:16.794Z,931.88
2019-03-09T01:55:16.774Z,931.88
2019-03-09T01:56:16.698Z,931.93
2019-03-09T01:57:16.666Z,931.94
2019-03-09T01:58:16.600Z,931.95
2019-03-09T01:59:16.555Z,931.96
2019-03-09T02:00:16.511Z,931.98
2019-03-09T02:01:16.488Z,932.03
2019-03-09T02:02:16.445Z,932.02
2019-03-09T02:03:16.381Z,932.01
2019-03-09T02:04:16.348Z,932.02
2019-03-09T02:05:21.170Z,931.99
2019-03-09T02:06:16.265Z,931.98
2019-03-09T02:07:16.199Z,931.99
2019-03-09T02:08:16.154Z,932.01
2019-03-09T02:09:16.119Z,932.01
2019-03-09T02:10:16.079Z,932.06
2019-03-09T02:11:16.030Z,932.05
2019-03-09T02:12:15.984Z,932.00
2019-03-09T02:13:15.953Z,932.04
2019-03-09T02:14:15.900Z,932.03
2019-03-09T02:15:16.054Z,932.03
2019-03-09T02:16:15.806Z,931.99
2019-03-09T02:17:15.791Z,932.01
2019-03-09T02:18:15.717Z,931.98
2019-03-09T02:19:15.678Z,931.94
2019-03-09T02:20:15.632Z,931.95
2019-03-09T02:21:15.588Z,931.96
2019-03-09T02:22:15.551Z,931.92
2019-03-09T02:23:15.486Z,931.93
2019-03-09T02:24:15.453Z,931.92
2019-03-09T02:25:15.449Z,931.93
2019-03-09T02:26:15.360Z,931.92
2019-03-09T02:27:15.329Z,931.87
2019-03-09T02:28:15.284Z,931.85
2019-03-09T02:29:15.239Z,931.89
2019-03-09T02:30:15.189Z,931.83
2019-03-09T02:31:15.150Z,931.85
2019-03-09T02:32:15.097Z,931.87
2019-03-09T02:33:15.047Z,931.83
2019-03-09T02:34:14.994Z,931.82
2019-03-09T02:35:14.971Z,931.86
2019-03-09T02:36:14.907Z,931.84
2019-03-09T02:37:14.868Z,931.86
2019-03-09T02:38:14.828Z,931.88
2019-03-09T02:39:14.771Z,931.85
2019-03-09T02:40:14.727Z,931.91
2019-03-09T02:41:14.694Z,931.87
2019-03-09T02:42:14.636Z,931.86
2019-03-09T02:43:14.613Z,931.89
2019-03-09T02:44:14.546Z,931.85
2019-03-09T02:45:14.515Z,931.85
2019-03-09T02:46:14.471Z,931.82
2019-03-09T02:47:14.413Z,931.82
2019-03-09T02:48:14.381Z,931.81
2019-03-09T02:49:14.337Z,931.80
2019-03-09T02:50:14.308Z,931.79
2019-03-09T02:51:14.247Z,931.79
2019-03-09T02:52:14.202Z,931.77
2019-03-09T02:53:14.155Z,931.77
2019-03-09T02:54:14.123Z,931.77
2019-03-09T02:55:14.064Z,931.80
2019-03-09T02:56:14.020Z,931.79
2019-03-09T02:57:13.977Z,931.78
2019-03-09T02:58:13.932Z,931.79
2019-03-09T02:59:13.887Z,931.78
2019-03-09T03:00:13.852Z,931.75
2019-03-09T03:01:13.793Z,931.76
2019-03-09T03:02:13.754Z,931.78
2019-03-09T03:03:13.718Z,931.79
2019-03-09T03:04:13.651Z,931.79
2019-03-09T03:05:13.628Z,931.77
2019-03-09T03:06:13.574Z,931.81
2019-03-09T03:07:13.530Z,931.80
2019-03-09T03:08:13.475Z,931.80
2019-03-09T03:09:13.462Z,931.78
2019-03-09T03:10:13.396Z,931.81
2019-03-09T03:11:13.346Z,931.79
2019-03-09T03:12:13.312Z,931.80
2019-03-09T03:13:13.258Z,931.80
2019-03-09T03:14:13.206Z,931.80
2019-03-09T03:15:13.189Z,931.78
2019-03-09T03:16:13.126Z,931.79
2019-03-09T03:17:13.078Z,931.77
2019-03-09T03:18:13.038Z,931.77
2019-03-09T03:19:12.987Z,931.77
2019-03-09T03:20:12.949Z,931.72
2019-03-09T03:21:12.897Z,931.74
2019-03-09T03:22:12.869Z,931.69
2019-03-09T03:23:12.821Z,931.71
2019-03-09T03:24:12.796Z,931.71
2019-03-09T03:25:12.715Z,931.69
2019-03-09T03:26:12.666Z,931.67
2019-03-09T03:27:12.634Z,931.71
2019-03-09T03:28:12.598Z,931.69
2019-03-09T03:29:12.543Z,931.66
2019-03-09T03:30:12.709Z,931.63
2019-03-09T03:31:12.450Z,931.57
2019-03-09T03:32:12.418Z,931.57
2019-03-09T03:33:12.365Z,931.52
2019-03-09T03:34:12.337Z,931.53
2019-03-09T03:35:12.277Z,931.49
2019-03-09T03:36:12.231Z,931.48
2019-03-09T03:37:12.181Z,931.45
2019-03-09T03:38:12.149Z,931.44
2019-03-09T03:39:12.090Z,931.42
2019-03-09T03:40:12.064Z,931.43
2019-03-09T03:41:12.007Z,931.39
2019-03-09T03:42:11.947Z,931.40
2019-03-09T03:43:11.924Z,931.38
2019-03-09T03:44:11.870Z,931.37
2019-03-09T03:45:11.822Z,931.39
2019-03-09T03:46:11.781Z,931.37
2019-03-09T03:47:11.723Z,931.38
2019-03-09T03:48:11.687Z,931.36
2019-03-09T03:49:11.632Z,931.37
2019-03-09T03:50:11.610Z,931.37
2019-03-09T03:51:11.551Z,931.35
2019-03-09T03:52:11.511Z,931.39
2019-03-09T03:53:11.454Z,931.43
2019-03-09T03:54:11.413Z,931.40
2019-03-09T03:55:11.387Z,931.38
2019-03-09T03:56:11.330Z,931.38
2019-03-09T03:57:11.306Z,931.39
2019-03-09T03:58:11.233Z,931.40
2019-03-09T03:59:11.214Z,931.39
2019-03-09T04:00:11.172Z,931.37
2019-03-09T04:01:11.116Z,931.34
2019-03-09T04:02:11.079Z,931.35
2019-03-09T04:03:11.012Z,931.36
2019-03-09T04:04:10.973Z,931.36
2019-03-09T04:05:10.920Z,931.34
2019-03-09T04:06:10.884Z,931.36
2019-03-09T04:07:10.838Z,931.36
2019-03-09T04:08:10.793Z,931.41
2019-03-09T04:09:10.734Z,931.43
2019-03-09T04:10:10.693Z,931.46
2019-03-09T04:11:10.665Z,931.48
2019-03-09T04:12:10.610Z,931.48
2019-03-09T04:13:10.574Z,931.45
2019-03-09T04:14:10.522Z,931.48
2019-03-09T04:15:10.475Z,931.43
2019-03-09T04:16:10.427Z,931.45
2019-03-09T04:17:10.387Z,931.46
2019-03-09T04:18:10.343Z,931.41
2019-03-09T04:19:10.298Z,931.40
2019-03-09T04:20:10.251Z,931.36
2019-03-09T04:21:10.207Z,931.34
2019-03-09T04:22:10.162Z,931.39
2019-03-09T04:23:10.104Z,931.36
2019-03-09T04:24:10.079Z,931.34
2019-03-09T04:25:10.095Z,931.30
2019-03-09T04:26:09.990Z,931.30
2019-03-09T04:27:09.978Z,931.32
2019-03-09T04:28:09.901Z,931.33
2019-03-09T04:29:09.854Z,931.35
2019-03-09T04:30:09.797Z,931.34
2019-03-09T04:31:09.744Z,931.34
2019-03-09T04:32:09.713Z,931.37
2019-03-09T04:33:09.670Z,931.36
2019-03-09T04:34:09.621Z,931.39
2019-03-09T04:35:09.595Z,931.39
2019-03-09T04:36:09.527Z,931.37
2019-03-09T04:37:09.474Z,931.39
2019-03-09T04:38:09.440Z,931.32
2019-03-09T04:39:09.405Z,931.35
2019-03-09T04:40:09.362Z,931.34
2019-03-09T04:41:09.305Z,931.35
2019-03-09T04:42:09.268Z,931.32
2019-03-09T04:43:09.214Z,931.36
2019-03-09T04:44:09.169Z,931.38
2019-03-09T04:45:09.111Z,931.37
2019-03-09T04:46:09.075Z,931.41
2019-03-09T04:47:09.030Z,931.37
2019-03-09T04:48:08.997Z,931.36
2019-03-09T04:49:08.939Z,931.39
2019-03-09T04:50:08.887Z,931.35
2019-03-09T04:51:08.854Z,931.35
2019-03-09T04:52:08.817Z,931.37
2019-03-09T04:53:08.763Z,931.37
2019-03-09T04:54:08.705Z,931.38
2019-03-09T04:55:08.669Z,931.35
2019-03-09T04:56:08.615Z,931.31
2019-03-09T04:57:08.582Z,931.31
2019-03-09T04:58:08.546Z,931.30
2019-03-09T04:59:08.501Z,931.28
2019-03-09T05:00:08.436Z,931.24
2019-03-09T05:01:08.411Z,931.21
2019-03-09T05:02:08.348Z,931.18
2019-03-09T05:03:08.312Z,931.20
2019-03-09T05:04:08.270Z,931.17
2019-03-09T05:05:08.218Z,931.21
2019-03-09T05:06:08.173Z,931.17
2019-03-09T05:07:08.140Z,931.14
2019-03-09T05:08:08.080Z,931.17
2019-03-09T05:09:08.038Z,931.16
2019-03-09T05:10:07.992Z,931.15
2019-03-09T05:11:07.952Z,931.16
2019-03-09T05:12:07.902Z,931.16
2019-03-09T05:13:07.870Z,931.12
2019-03-09T05:14:07.813Z,931.13
2019-03-09T05:15:07.783Z,931.05
2019-03-09T05:16:07.735Z,931.07
2019-03-09T05:17:07.690Z,931.09
2019-03-09T05:18:07.645Z,931.04
2019-03-09T05:19:07.602Z,931.02
2019-03-09T05:20:07.556Z,931.03
2019-03-09T05:21:07.497Z,931.07
2019-03-09T05:22:07.458Z,931.06
2019-03-09T05:23:07.407Z,931.01
2019-03-09T05:24:07.312Z,931.02
2019-03-09T05:25:07.321Z,930.95
2019-03-09T05:26:07.284Z,930.95
2019-03-09T05:27:07.219Z,931.04
2019-03-09T05:28:07.194Z,930.99
2019-03-09T05:29:07.136Z,931.02
2019-03-09T05:30:07.109Z,931.07
2019-03-09T05:31:07.046Z,931.05
2019-03-09T05:32:07.014Z,931.09
2019-03-09T05:33:06.968Z,931.11
2019-03-09T05:34:06.915Z,931.11
2019-03-09T05:35:06.871Z,931.11
2019-03-09T05:36:06.812Z,931.10
2019-03-09T05:37:06.791Z,931.13
2019-03-09T05:38:06.721Z,931.10
2019-03-09T05:39:06.676Z,931.08
2019-03-09T05:40:06.632Z,931.08
2019-03-09T05:41:06.595Z,931.07
2019-03-09T05:42:06.541Z,931.05
2019-03-09T05:43:06.520Z,931.00
2019-03-09T05:44:06.464Z,930.97
2019-03-09T05:45:06.417Z,930.96
2019-03-09T05:46:06.369Z,930.98
2019-03-09T05:47:06.316Z,930.98
2019-03-09T05:48:06.279Z,930.97
2019-03-09T05:49:06.226Z,930.98
2019-03-09T05:50:06.186Z,931.00
2019-03-09T05:51:06.145Z,930.99
2019-03-09T05:52:06.103Z,931.00
2019-03-09T05:53:06.057Z,931.03
2019-03-09T05:54:05.999Z,931.04
2019-03-09T05:55:05.964Z,931.06
2019-03-09T05:56:07.805Z,931.13
2019-03-09T05:57:05.873Z,931.07
2019-03-09T05:58:05.819Z,931.13
2019-03-09T05:59:05.795Z,931.09
2019-03-09T06:00:05.748Z,931.12
2019-03-09T06:01:05.691Z,931.08
2019-03-09T06:02:05.646Z,931.09
2019-03-09T06:03:05.593Z,931.08
2019-03-09T06:04:05.547Z,931.05
2019-03-09T06:05:05.523Z,931.05
2019-03-09T06:06:05.466Z,931.03
2019-03-09T06:07:05.420Z,931.02
2019-03-09T06:08:05.390Z,931.01
2019-03-09T06:09:05.321Z,930.97
2019-03-09T06:10:05.276Z,930.96
2019-03-09T06:11:05.244Z,930.91
2019-03-09T06:12:05.186Z,930.93
2019-03-09T06:13:05.162Z,930.90
2019-03-09T06:14:05.099Z,930.84
2019-03-09T06:15:05.051Z,930.90
2019-03-09T06:16:05.027Z,930.89
2019-03-09T06:17:04.985Z,930.88
2019-03-09T06:18:06.412Z,930.86
2019-03-09T06:19:04.878Z,930.82
2019-03-09T06:20:04.840Z,930.82
2019-03-09T06:21:04.788Z,930.78
2019-03-09T06:22:04.745Z,930.81
2019-03-09T06:23:04.690Z,930.75
2019-03-09T06:24:04.657Z,930.74
2019-03-09T06:25:04.607Z,930.74
2019-03-09T06:26:04.556Z,930.78
2019-03-09T06:27:04.513Z,930.75
2019-03-09T06:28:04.485Z,930.81
2019-03-09T06:29:04.419Z,930.75
2019-03-09T06:30:04.381Z,930.76
2019-03-09T06:31:04.341Z,930.75
2019-03-09T06:32:04.282Z,930.72
2019-03-09T06:33:04.251Z,930.72
2019-03-09T06:34:04.204Z,930.70
2019-03-09T06:35:04.150Z,930.70
2019-03-09T06:36:04.113Z,930.68
2019-03-09T06:37:04.079Z,930.70
2019-03-09T06:38:04.026Z,930.71
2019-03-09T06:39:03.980Z,930.72
2019-03-09T06:40:04.124Z,930.72
2019-03-09T06:41:03.879Z,930.73
2019-03-09T06:42:03.831Z,930.70
2019-03-09T06:43:03.808Z,930.73
2019-03-09T06:44:03.743Z,930.71
2019-03-09T06:45:03.696Z,930.69
2019-03-09T06:46:03.654Z,930.69
2019-03-09T06:47:03.605Z,930.67
2019-03-09T06:48:03.584Z,930.66
2019-03-09T06:49:03.531Z,930.62
2019-03-09T06:50:03.485Z,930.63
2019-03-09T06:51:03.446Z,930.60
2019-03-09T06:52:03.379Z,930.56
2019-03-09T06:53:03.370Z,930.58
2019-03-09T06:54:03.308Z,930.58
2019-03-09T06:55:03.253Z,930.60
2019-03-09T06:56:03.208Z,930.51
2019-03-09T06:57:03.166Z,930.54
2019-03-09T06:58:03.118Z,930.50
2019-03-09T06:59:03.075Z,930.50
2019-03-09T07:00:03.031Z,930.49
2019-03-09T07:01:02.981Z,930.51
2019-03-09T07:02:02.949Z,930.47
2019-03-09T07:03:02.900Z,930.49
2019-03-09T07:04:02.838Z,930.46
2019-03-09T07:05:02.801Z,930.53
2019-03-09T07:06:02.769Z,930.54
2019-03-09T07:07:02.715Z,930.55
2019-03-09T07:08:02.670Z,930.62
2019-03-09T07:09:02.626Z,930.64
2019-03-09T07:10:02.578Z,930.64
2019-03-09T07:11:02.532Z,930.65
2019-03-09T07:12:02.477Z,930.65
2019-03-09T07:13:02.454Z,930.65
2019-03-09T07:14:02.398Z,930.63
2019-03-09T07:15:02.362Z,930.62
2019-03-09T07:16:02.295Z,930.58
2019-03-09T07:17:02.273Z,930.58
2019-03-09T07:18:02.218Z,930.57
2019-03-09T07:19:02.181Z,930.52
2019-03-09T07:20:11.925Z,930.55
2019-03-09T07:21:02.091Z,930.52
2019-03-09T07:22:02.026Z,930.53
2019-03-09T07:23:01.992Z,930.49
2019-03-09T07:24:01.933Z,930.52
2019-03-09T07:25:01.911Z,930.48
2019-03-09T07:26:01.852Z,930.50
2019-03-09T07:27:01.805Z,930.52
2019-03-09T07:28:01.757Z,930.53
2019-03-09T07:29:01.710Z,930.50
2019-03-09T07:30:01.665Z,930.50
2019-03-09T07:31:01.638Z,930.46
2019-03-09T07:32:01.581Z,930.44
2019-03-09T07:33:01.535Z,930.41
2019-03-09T07:34:01.490Z,930.39
2019-03-09T07:35:01.459Z,930.38
2019-03-09T07:36:01.392Z,930.34
2019-03-09T07:37:01.351Z,930.38
2019-03-09T07:38:01.302Z,930.37
2019-03-09T07:39:01.276Z,930.33
2019-03-09T07:40:01.222Z,930.33
2019-03-09T07:41:01.172Z,930.36
2019-03-09T07:42:01.127Z,930.35
2019-03-09T07:43:01.074Z,930.35
2019-03-09T07:44:01.028Z,930.42
2019-03-09T07:45:01.005Z,930.43
2019-03-09T07:46:00.960Z,930.45
2019-03-09T07:47:00.901Z,930.49
2019-03-09T07:48:00.860Z,930.41
2019-03-09T07:49:00.823Z,930.47
2019-03-09T07:50:00.779Z,930.44
2019-03-09T07:51:00.725Z,930.44
2019-03-09T07:52:00.681Z,930.46
2019-03-09T07:53:00.629Z,930.43
2019-03-09T07:54:00.588Z,930.46
2019-03-09T07:55:00.544Z,930.43
2019-03-09T07:56:00.506Z,930.46
2019-03-09T07:57:00.461Z,930.44
2019-03-09T07:58:00.403Z,930.45
2019-03-09T07:59:00.370Z,930.40
2019-03-09T08:00:00.357Z,930.40
2019-03-09T08:01:00.258Z,930.48
2019-03-09T08:02:00.213Z,930.48
2019-03-09T08:03:00.176Z,930.50
2019-03-09T08:04:00.135Z,930.55
2019-03-09T08:05:00.082Z,930.61
2019-03-09T08:06:00.040Z,930.60
2019-03-09T08:06:59.999Z,930.56
2019-03-09T08:07:59.953Z,930.61
2019-03-09T08:08:59.904Z,930.58
2019-03-09T08:09:59.858Z,930.58
2019-03-09T08:10:59.813Z,930.59
2019-03-09T08:11:59.781Z,930.59
2019-03-09T08:12:59.743Z,930.57
2019-03-09T08:13:59.681Z,930.58
2019-03-09T08:14:59.645Z,930.57
2019-03-09T08:15:59.593Z,930.59
2019-03-09T08:16:59.532Z,930.58
2019-03-09T08:17:59.503Z,930.58
2019-03-09T08:18:59.450Z,930.61
2019-03-09T08:19:59.404Z,930.62
2019-03-09T08:20:59.360Z,930.68
2019-03-09T08:21:59.320Z,930.68
2019-03-09T08:22:59.287Z,930.70
2019-03-09T08:23:59.240Z,930.75
2019-03-09T08:24:59.178Z,930.73
2019-03-09T08:25:59.153Z,930.80
2019-03-09T08:26:59.104Z,930.77
2019-03-09T08:27:59.052Z,930.79
2019-03-09T08:28:59.025Z,930.75
2019-03-09T08:29:58.971Z,930.75
2019-03-09T08:30:58.911Z,930.72
2019-03-09T08:31:58.866Z,930.72
2019-03-09T08:32:58.809Z,930.75
2019-03-09T08:33:58.762Z,930.71
2019-03-09T08:34:58.719Z,930.73
2019-03-09T08:35:58.682Z,930.75
2019-03-09T08:36:58.658Z,930.70
2019-03-09T08:37:58.593Z,930.71
2019-03-09T08:38:58.555Z,930.67
2019-03-09T08:39:58.495Z,930.67
2019-03-09T08:40:58.457Z,930.62
2019-03-09T08:41:58.420Z,930.66
2019-03-09T08:42:58.370Z,930.63
2019-03-09T08:43:58.329Z,930.60
2019-03-09T08:44:58.305Z,930.59
2019-03-09T08:45:58.244Z,930.59
2019-03-09T08:46:58.213Z,930.55
2019-03-09T08:47:58.139Z,930.55
2019-03-09T08:49:00.007Z,930.56
2019-03-09T08:49:58.037Z,930.57
2019-03-09T08:50:58.021Z,930.58
2019-03-09T08:51:58.013Z,930.54
2019-03-09T08:52:57.951Z,930.58
2019-03-09T08:53:57.867Z,930.64
2019-03-09T08:54:57.821Z,930.62
2019-03-09T08:55:57.824Z,930.59
2019-03-09T08:56:57.727Z,930.63
2019-03-09T08:57:57.686Z,930.65
2019-03-09T08:58:57.629Z,930.67
2019-03-09T08:59:57.605Z,930.67
2019-03-09T09:00:57.555Z,930.67
2019-03-09T09:01:57.532Z,930.71
2019-03-09T09:02:57.454Z,930.72
2019-03-09T09:03:57.400Z,930.75
2019-03-09T09:04:57.370Z,930.83
2019-03-09T09:05:57.309Z,930.81
2019-03-09T09:06:57.277Z,930.80
2019-03-09T09:07:57.228Z,930.83
2019-03-09T09:08:57.175Z,930.85
2019-03-09T09:09:57.139Z,930.86
2019-03-09T09:10:57.124Z,930.86
2019-03-09T09:11:57.058Z,930.88
2019-03-09T09:12:57.000Z,930.84
2019-03-09T09:13:56.967Z,930.89
2019-03-09T09:14:56.922Z,930.91
2019-03-09T09:15:56.858Z,930.89
2019-03-09T09:16:56.810Z,930.89
2019-03-09T09:17:56.791Z,930.85
2019-03-09T09:18:56.719Z,930.86
2019-03-09T09:19:56.687Z,930.91
2019-03-09T09:20:56.641Z,930.90
2019-03-09T09:21:56.591Z,930.91
2019-03-09T09:22:56.542Z,930.94
2019-03-09T09:23:56.506Z,930.95
2019-03-09T09:24:56.447Z,930.97
2019-03-09T09:25:56.423Z,930.99
2019-03-09T09:26:56.379Z,931.00
2019-03-09T09:27:56.333Z,931.00
2019-03-09T09:28:56.287Z,931.04
2019-03-09T09:29:56.222Z,931.05
2019-03-09T09:30:56.189Z,931.04
2019-03-09T09:31:56.138Z,931.03
2019-03-09T09:32:56.097Z,931.03
2019-03-09T09:33:58.290Z,930.98
2019-03-09T09:34:55.994Z,931.02
2019-03-09T09:35:55.958Z,931.08
2019-03-09T09:36:55.927Z,931.09
2019-03-09T09:37:55.879Z,931.09
2019-03-09T09:38:55.826Z,931.10
2019-03-09T09:39:55.768Z,931.14
2019-03-09T09:40:55.731Z,931.09
2019-03-09T09:41:55.678Z,931.11
2019-03-09T09:42:55.643Z,931.07
2019-03-09T09:43:55.610Z,931.17
2019-03-09T09:44:55.543Z,931.15
2019-03-09T09:45:55.507Z,931.22
2019-03-09T09:46:55.454Z,931.30
2019-03-09T09:47:55.432Z,931.31
2019-03-09T09:48:55.366Z,931.37
2019-03-09T09:49:55.344Z,931.37
2019-03-09T09:50:55.304Z,931.42
2019-03-09T09:51:55.235Z,931.48
2019-03-09T09:52:55.207Z,931.52
2019-03-09T09:53:55.152Z,931.58
2019-03-09T09:54:55.108Z,931.62
2019-03-09T09:55:55.081Z,931.66
2019-03-09T09:56:55.046Z,931.69
2019-03-09T09:57:54.983Z,931.68
2019-03-09T09:58:54.942Z,931.74
2019-03-09T09:59:54.910Z,931.76
2019-03-09T10:00:54.871Z,931.91
2019-03-09T10:01:54.842Z,931.92
2019-03-09T10:02:54.793Z,932.00
2019-03-09T10:03:54.758Z,931.91
2019-03-09T10:04:54.715Z,931.71
2019-03-09T10:05:54.662Z,931.88
2019-03-09T10:06:54.638Z,931.73
2019-03-09T10:07:54.610Z,931.51
2019-03-09T10:08:54.554Z,931.65
2019-03-09T10:09:54.515Z,931.83
2019-03-09T10:10:54.490Z,931.70
2019-03-09T10:11:54.438Z,931.60
2019-03-09T10:12:55.903Z,931.53
2019-03-09T10:13:54.351Z,931.59
2019-03-09T10:14:54.319Z,931.62
2019-03-09T10:15:54.293Z,931.63
2019-03-09T10:16:54.253Z,931.63
2019-03-09T10:17:54.214Z,931.59
2019-03-09T10:18:54.164Z,931.60
2019-03-09T10:19:54.120Z,931.63
2019-03-09T10:20:54.079Z,931.67
2019-03-09T10:21:54.030Z,931.64
2019-03-09T10:23:03.617Z,931.65
2019-03-09T10:23:53.962Z,931.64
2019-03-09T10:24:53.932Z,931.68
2019-03-09T10:25:53.887Z,931.69
2019-03-09T10:26:53.833Z,931.68
2019-03-09T10:27:53.806Z,931.69
2019-03-09T10:28:53.754Z,931.69
2019-03-09T10:29:53.711Z,931.76
2019-03-09T10:30:53.667Z,931.69
2019-03-09T10:31:53.614Z,931.71
2019-03-09T10:32:53.587Z,931.74
2019-03-09T10:33:53.549Z,931.78
2019-03-09T10:34:53.488Z,931.77
2019-03-09T10:35:53.446Z,931.78
2019-03-09T10:36:53.427Z,931.97
2019-03-09T10:37:53.384Z,933.28
2019-03-09T10:38:53.321Z,931.99
2019-03-09T10:39:53.285Z,932.11
2019-03-09T10:40:53.261Z,933.40
2019-03-09T10:41:53.208Z,933.50
2019-03-09T10:42:53.163Z,931.99
2019-03-09T10:43:53.109Z,931.91
2019-03-09T10:44:53.068Z,932.06
2019-03-09T10:45:53.048Z,933.94
2019-03-09T10:46:53.010Z,931.95
2019-03-09T10:47:52.945Z,931.94
2019-03-09T10:48:52.913Z,931.94
2019-03-09T10:49:52.864Z,931.87
2019-03-09T10:50:52.822Z,931.91
2019-03-09T10:51:52.781Z,931.92
2019-03-09T10:52:52.762Z,931.91
2019-03-09T10:53:52.708Z,931.93
2019-03-09T10:54:52.685Z,931.91
2019-03-09T10:55:52.630Z,931.97
2019-03-09T10:56:52.575Z,931.92
2019-03-09T10:57:52.542Z,931.94
2019-03-09T10:58:52.514Z,931.90
2019-03-09T10:59:52.462Z,931.88
2019-03-09T11:00:52.421Z,931.96
2019-03-09T11:01:52.365Z,931.96
2019-03-09T11:02:52.343Z,931.94
2019-03-09T11:03:52.302Z,931.95
2019-03-09T11:04:52.260Z,932.02
2019-03-09T11:05:52.210Z,932.00
2019-03-09T11:06:52.154Z,932.06
2019-03-09T11:07:52.135Z,932.13
2019-03-09T11:08:52.077Z,932.16
2019-03-09T11:09:52.027Z,932.10
2019-03-09T11:10:51.997Z,932.09
2019-03-09T11:11:51.941Z,932.14
2019-03-09T11:12:51.911Z,932.12
2019-03-09T11:13:52.354Z,932.11
2019-03-09T11:14:51.822Z,932.09
2019-03-09T11:15:51.771Z,932.14
2019-03-09T11:16:51.728Z,932.09
2019-03-09T11:17:51.687Z,932.02
2019-03-09T11:18:51.654Z,931.99
2019-03-09T11:19:51.601Z,932.00
2019-03-09T11:20:51.566Z,931.96
2019-03-09T11:21:51.540Z,931.92
2019-03-09T11:22:51.474Z,931.96
2019-03-09T11:23:51.512Z,931.97
2019-03-09T11:24:51.411Z,931.90
2019-03-09T11:25:51.349Z,931.91
2019-03-09T11:26:51.325Z,931.90
2019-03-09T11:27:51.275Z,931.85
2019-03-09T11:28:51.240Z,931.85
2019-03-09T11:29:51.189Z,931.87
2019-03-09T11:30:51.144Z,931.89
2019-03-09T11:31:51.101Z,931.86
2019-03-09T11:32:51.058Z,931.86
2019-03-09T11:33:51.016Z,931.83
2019-03-09T11:34:50.966Z,931.86
2019-03-09T11:35:50.943Z,931.84
2019-03-09T11:36:50.894Z,931.88
2019-03-09T11:37:50.860Z,931.84
2019-03-09T11:38:50.807Z,931.88
2019-03-09T11:39:50.768Z,931.85
2019-03-09T11:40:57.381Z,931.84
2019-03-09T11:41:50.682Z,931.80
2019-03-09T11:42:50.628Z,931.83
2019-03-09T11:43:50.585Z,931.86
2019-03-09T11:44:50.555Z,931.86
2019-03-09T11:45:50.522Z,931.85
2019-03-09T11:46:50.469Z,931.88
2019-03-09T11:47:50.416Z,931.90
2019-03-09T11:48:50.393Z,931.87
2019-03-09T11:49:50.331Z,931.90
2019-03-09T11:50:50.302Z,931.91
2019-03-09T11:51:50.257Z,931.94
2019-03-09T11:52:50.213Z,931.92
2019-03-09T11:53:50.183Z,931.90
2019-03-09T11:54:50.133Z,931.89
2019-03-09T11:55:50.078Z,931.86
2019-03-09T11:56:50.057Z,931.90
2019-03-09T11:57:50.001Z,931.90
2019-03-09T11:58:49.965Z,931.91
2019-03-09T11:59:49.921Z,931.93
2019-03-09T12:00:49.881Z,931.96
2019-03-09T12:01:49.846Z,931.92
2019-03-09T12:02:49.790Z,931.93
2019-03-09T12:03:49.766Z,931.95
2019-03-09T12:04:49.697Z,931.96
2019-03-09T12:05:49.679Z,931.99
2019-03-09T12:06:49.628Z,931.96
2019-03-09T12:07:49.582Z,931.93
2019-03-09T12:08:49.549Z,931.93
2019-03-09T12:09:49.498Z,931.93
2019-03-09T12:10:49.443Z,931.90
2019-03-09T12:11:50.758Z,931.92
2019-03-09T12:12:49.373Z,931.92
2019-03-09T12:13:49.336Z,931.91
2019-03-09T12:14:49.285Z,931.86
2019-03-09T12:15:49.251Z,931.84
2019-03-09T12:16:49.213Z,931.84
2019-03-09T12:17:50.697Z,931.82
2019-03-09T12:18:49.115Z,931.85
2019-03-09T12:19:49.069Z,931.79
2019-03-09T12:20:49.030Z,931.80
2019-03-09T12:21:48.983Z,931.82
2019-03-09T12:22:48.940Z,931.81
2019-03-09T12:23:48.911Z,931.82
2019-03-09T12:24:48.869Z,931.78
2019-03-09T12:25:48.826Z,931.82
2019-03-09T12:26:48.791Z,931.86
2019-03-09T12:27:48.743Z,931.81